Time;durP1;ratioP1;P1;durP2;ratioP2;P2;SDS_P1;SDS_P2;PMS_P1;PMS_P2;Temp;Humidity;BMP_temperature;BMP_pressure;BME280_temperature;BME280_humidity;BME280_pressure;Samples;Min_cycle;Max_cycle;Signal;HPM_P1;HPM_P2
2023/07/28 00:01:13;;;;;;;4.97;0.83;;;;;;;17.23;100.00;99735.84;5054203;28;20473;-70
2023/07/28 00:03:40;;;;;;;5.07;0.83;;;;;;;17.22;100.00;99737.81;5053761;28;20521;-71
2023/07/28 00:06:06;;;;;;;5.03;0.80;;;;;;;17.22;100.00;99740.53;5053892;28;20564;-71
2023/07/28 00:08:33;;;;;;;5.13;1.00;;;;;;;17.27;100.00;99732.00;5054267;28;20431;-71
2023/07/28 00:10:59;;;;;;;5.10;1.00;;;;;;;17.32;100.00;99723.47;5054207;28;20445;-72
2023/07/28 00:13:26;;;;;;;4.90;1.10;;;;;;;17.33;100.00;99730.53;5054221;28;20529;-71
2023/07/28 00:15:54;;;;;;;4.97;1.00;;;;;;;17.35;100.00;99730.97;5053784;28;20462;-71
2023/07/28 00:18:21;;;;;;;4.47;0.70;;;;;;;17.34;100.00;99715.69;5054094;28;20525;-70
2023/07/28 00:20:47;;;;;;;4.77;1.00;;;;;;;17.36;100.00;99718.06;5053824;28;20470;-71
2023/07/28 00:23:14;;;;;;;4.67;0.63;;;;;;;17.38;100.00;99713.00;5053763;28;20529;-70
2023/07/28 00:25:41;;;;;;;5.93;0.93;;;;;;;17.37;100.00;99719.63;5054012;28;20830;-70
2023/07/28 00:28:07;;;;;;;5.33;1.40;;;;;;;17.38;100.00;99727.47;5053931;28;20466;-70
2023/07/28 00:30:34;;;;;;;4.60;0.90;;;;;;;17.42;100.00;99715.78;5053395;28;20529;-70
2023/07/28 00:33:02;;;;;;;5.30;1.07;;;;;;;17.45;100.00;99715.06;5053583;28;20522;-70
2023/07/28 00:35:28;;;;;;;8.60;1.40;;;;;;;17.46;100.00;99713.91;5053576;28;20542;-70
2023/07/28 00:37:55;;;;;;;5.07;1.20;;;;;;;17.48;100.00;99708.84;5053230;28;21005;-70
2023/07/28 00:40:22;;;;;;;4.73;0.77;;;;;;;17.51;100.00;99708.09;5053803;28;20529;-70
2023/07/28 00:42:49;;;;;;;5.20;1.10;;;;;;;17.52;100.00;99715.16;5052848;28;20481;-70
2023/07/28 00:45:16;;;;;;;6.00;1.10;;;;;;;17.51;100.00;99714.38;5053426;28;20465;-70
2023/07/28 00:47:43;;;;;;;5.00;1.17;;;;;;;17.56;100.00;99718.75;5053739;28;20461;-70
2023/07/28 00:50:12;;;;;;;4.80;0.90;;;;;;;17.59;100.00;99720.75;5053132;28;20482;-70
2023/07/28 00:52:39;;;;;;;4.77;1.07;;;;;;;17.58;100.00;99717.22;5053371;28;20528;-70
2023/07/28 00:55:07;;;;;;;6.43;0.87;;;;;;;17.59;100.00;99721.53;5053405;28;20549;-70
2023/07/28 00:57:34;;;;;;;4.67;0.90;;;;;;;17.61;100.00;99712.94;5053067;28;20890;-70
2023/07/28 01:00:01;;;;;;;5.90;1.03;;;;;;;17.58;100.00;99702.75;5053257;28;20976;-70
2023/07/28 01:02:28;;;;;;;5.10;1.20;;;;;;;17.61;100.00;99704.72;5053416;28;20978;-70
2023/07/28 01:04:55;;;;;;;5.00;1.00;;;;;;;17.62;100.00;99709.06;5053332;28;20541;-70
2023/07/28 01:07:31;;;;;;;5.10;1.20;;;;;;;17.62;100.00;99709.06;5053056;28;20453;-70
2023/07/28 01:10:03;;;;;;;6.97;1.00;;;;;;;17.64;100.00;99706.72;5053303;28;20426;-70
2023/07/28 01:12:30;;;;;;;4.47;0.90;;;;;;;17.62;100.00;99695.38;5053002;28;20435;-70
2023/07/28 01:14:57;;;;;;;5.03;0.93;;;;;;;17.67;100.00;99705.22;5053406;28;20497;-71
2023/07/28 01:17:24;;;;;;;5.47;1.10;;;;;;;17.67;100.00;99697.78;5053181;28;20529;-71
2023/07/28 01:19:51;;;;;;;4.97;1.03;;;;;;;17.68;100.00;99695.84;5053614;28;20533;-71
2023/07/28 01:22:47;;;;;;;4.70;0.70;;;;;;;17.65;100.00;99692.66;5053235;28;20488;-71
2023/07/28 01:25:21;;;;;;;4.83;0.70;;;;;;;17.70;100.00;99690.75;5053177;28;20468;-71
2023/07/28 01:27:50;;;;;;;5.13;0.83;;;;;;;17.70;100.00;99694.28;5053550;28;20436;-71
2023/07/28 01:30:19;;;;;;;4.80;1.00;;;;;;;17.71;100.00;99692.31;5053205;28;20541;-71
2023/07/28 01:32:46;;;;;;;5.00;1.20;;;;;;;17.70;100.00;99699.75;5052965;28;20868;-72
2023/07/28 01:35:12;;;;;;;4.57;0.73;;;;;;;17.69;100.00;99687.22;5053132;28;20568;-71
2023/07/28 01:37:39;;;;;;;5.30;1.10;;;;;;;17.70;100.00;99686.06;5052944;28;21028;-71
2023/07/28 01:40:07;;;;;;;5.07;1.03;;;;;;;17.66;100.00;99690.69;5052765;28;20482;-72
2023/07/28 01:42:34;;;;;;;5.27;0.90;;;;;;;17.68;100.00;99696.63;5053433;28;20458;-71
2023/07/28 01:45:02;;;;;;;4.90;0.90;;;;;;;17.69;100.00;99698.19;5052906;28;20454;-71
2023/07/28 01:47:29;;;;;;;5.70;0.97;;;;;;;17.69;100.00;99692.72;5053668;28;20485;-70
2023/07/28 01:49:56;;;;;;;4.70;1.00;;;;;;;17.70;100.00;99694.28;5060291;28;20831;-74
2023/07/28 01:52:22;;;;;;;4.70;0.80;;;;;;;17.73;100.00;99695.50;5053089;28;20519;-71
2023/07/28 01:54:50;;;;;;;5.00;1.10;;;;;;;17.75;100.00;99701.41;5054748;28;20543;-72
2023/07/28 01:57:16;;;;;;;5.10;0.97;;;;;;;17.77;100.00;99691.69;5056847;28;20449;-71
2023/07/28 01:59:43;;;;;;;5.00;1.20;;;;;;;17.75;100.00;99685.78;5056102;28;20474;-71
2023/07/28 02:02:11;;;;;;;4.70;0.97;;;;;;;17.75;100.00;99688.53;5056316;28;20922;-71
2023/07/28 02:04:38;;;;;;;5.47;1.20;;;;;;;17.78;100.00;99690.50;5056299;28;20533;-70
2023/07/28 02:07:05;;;;;;;5.67;0.97;;;;;;;17.80;100.00;99701.91;5074517;22;20581;-73
2023/07/28 02:09:31;;;;;;;5.07;1.13;;;;;;;17.78;100.00;99693.25;5056368;28;20517;-73
2023/07/28 02:11:58;;;;;;;5.93;1.37;;;;;;;17.77;100.00;99694.41;5056792;28;20448;-73
2023/07/28 02:14:25;;;;;;;5.83;1.53;;;;;;;17.78;100.00;99697.94;5056087;28;20573;-73
2023/07/28 02:16:51;;;;;;;5.30;0.97;;;;;;;17.80;100.00;99690.16;5056410;28;20529;-73
2023/07/28 02:19:19;;;;;;;7.90;2.17;;;;;;;17.78;100.00;99681.50;5056058;28;20477;-73
2023/07/28 02:21:46;;;;;;;5.47;1.17;;;;;;;17.77;100.00;99696.38;5056186;28;20537;-74
2023/07/28 02:24:12;;;;;;;5.37;1.23;;;;;;;17.76;100.00;99678.38;5056111;28;20521;-74
2023/07/28 02:26:39;;;;;;;6.03;1.40;;;;;;;17.77;100.00;99683.47;5056594;28;20466;-74
2023/07/28 02:29:06;;;;;;;6.50;1.67;;;;;;;17.79;100.00;99686.59;5056475;28;20478;-73
2023/07/28 02:31:32;;;;;;;6.07;1.70;;;;;;;17.79;100.00;99683.88;5055814;28;20445;-73
2023/07/28 02:33:59;;;;;;;6.50;1.90;;;;;;;17.79;100.00;99678.38;5056123;28;20485;-73
2023/07/28 02:36:27;;;;;;;5.70;1.57;;;;;;;17.85;100.00;99676.13;5055758;28;20470;-73
2023/07/28 02:38:53;;;;;;;5.73;1.73;;;;;;;17.77;100.00;99677.19;5056101;28;20482;-72
2023/07/28 02:41:20;;;;;;;6.33;1.43;;;;;;;17.81;100.00;99669.81;5056048;28;20885;-72
2023/07/28 02:43:47;;;;;;;5.93;1.50;;;;;;;17.84;100.00;99680.81;5056240;28;20452;-72
2023/07/28 02:46:13;;;;;;;7.13;2.00;;;;;;;17.85;100.00;99674.19;5055853;28;20877;-73
2023/07/28 02:48:40;;;;;;;6.37;2.10;;;;;;;17.83;100.00;99664.75;5055270;28;20976;-73
2023/07/28 02:51:06;;;;;;;6.27;1.90;;;;;;;17.87;100.00;99671.06;5055729;28;20549;-71
2023/07/28 02:53:34;;;;;;;6.00;1.50;;;;;;;17.87;100.00;99671.06;5055716;28;20570;-72
2023/07/28 02:56:01;;;;;;;5.40;1.20;;;;;;;17.87;100.00;99671.84;5055113;28;20498;-73
2023/07/28 02:58:28;;;;;;;6.97;1.73;;;;;;;17.88;100.00;99665.22;5055726;28;20474;-73
2023/07/28 03:00:54;;;;;;;6.10;1.63;;;;;;;17.86;100.00;99678.50;5055547;28;20485;-73
2023/07/28 03:03:21;;;;;;;6.80;2.20;;;;;;;17.85;100.00;99681.59;5055308;28;20470;-72
2023/07/28 03:05:47;;;;;;;7.30;2.47;;;;;;;17.87;100.00;99669.09;5054177;28;20489;-72
2023/07/28 03:08:14;;;;;;;7.00;2.30;;;;;;;17.85;100.00;99679.66;5055180;28;20452;-71
2023/07/28 03:10:42;;;;;;;6.07;1.83;;;;;;;17.86;100.00;99683.97;5055183;28;20500;-72
2023/07/28 03:13:09;;;;;;;7.07;2.20;;;;;;;17.89;100.00;99696.16;5055162;28;20513;-71
2023/07/28 03:15:35;;;;;;;7.00;2.20;;;;;;;17.88;100.00;99694.53;5055188;28;21016;-72
2023/07/28 03:18:02;;;;;;;7.63;1.90;;;;;;;17.88;100.00;99700.84;5054763;28;20445;-72
2023/07/28 03:20:29;;;;;;;5.63;1.60;;;;;;;17.89;100.00;99696.94;5054973;28;20439;-71
2023/07/28 03:22:56;;;;;;;6.07;1.87;;;;;;;17.89;100.00;99699.66;5054670;28;20470;-72
2023/07/28 03:25:22;;;;;;;7.27;2.23;;;;;;;17.94;100.00;99695.03;5054820;28;20468;-71
2023/07/28 03:27:52;;;;;;;6.23;2.33;;;;;;;17.94;100.00;99697.78;5054868;28;20988;-72
2023/07/28 03:30:19;;;;;;;8.70;2.40;;;;;;;17.95;100.00;99710.31;5054504;28;20454;-71
2023/07/28 03:32:45;;;;;;;8.63;2.10;;;;;;;17.93;100.00;99707.94;5054740;28;20464;-72
2023/07/28 03:35:12;;;;;;;7.43;1.80;;;;;;;17.86;100.00;99716.84;5054590;28;20899;-72
2023/07/28 03:37:39;;;;;;;7.73;2.20;;;;;;;17.90;100.00;99717.69;5054628;28;20474;-71
2023/07/28 03:40:07;;;;;;;6.73;1.70;;;;;;;17.95;100.00;99710.31;5054625;28;20470;-72
2023/07/28 03:42:34;;;;;;;6.27;1.87;;;;;;;17.92;100.00;99711.03;5054519;28;20434;-72
2023/07/28 03:45:02;;;;;;;9.30;2.37;;;;;;;17.93;100.00;99710.69;5054414;28;20458;-72
2023/07/28 03:47:28;;;;;;;7.10;1.87;;;;;;;17.90;100.00;99716.91;5054739;28;20449;-72
2023/07/28 03:49:55;;;;;;;5.53;1.97;;;;;;;17.85;100.00;99722.69;5054749;28;20453;-71
2023/07/28 03:52:22;;;;;;;6.50;2.00;;;;;;;17.86;100.00;99718.78;5054980;28;20507;-72
2023/07/28 03:54:48;;;;;;;9.10;2.53;;;;;;;17.87;100.00;99725.84;5054231;28;20522;-72
2023/07/28 03:57:15;;;;;;;7.53;2.07;;;;;;;17.85;100.00;99723.50;5054276;28;20524;-72
2023/07/28 03:59:42;;;;;;;8.20;2.87;;;;;;;17.88;100.00;99713.72;5054367;28;20533;-72
2023/07/28 04:02:10;;;;;;;9.00;2.33;;;;;;;17.88;100.00;99728.25;5054191;28;20446;-72
2023/07/28 04:04:36;;;;;;;7.20;2.20;;;;;;;17.81;100.00;99722.66;5054365;28;20466;-72
2023/07/28 04:07:03;;;;;;;6.00;2.10;;;;;;;17.86;100.00;99730.53;5053963;28;20454;-72
2023/07/28 04:09:30;;;;;;;6.77;2.37;;;;;;;17.87;100.00;99732.13;5054030;28;20499;-71
2023/07/28 04:11:56;;;;;;;9.33;1.93;;;;;;;17.87;100.00;99736.81;5054324;28;20448;-72
2023/07/28 04:14:23;;;;;;;8.10;2.40;;;;;;;17.89;100.00;99737.25;5054149;28;20516;-72
2023/07/28 04:16:49;;;;;;;6.87;1.90;;;;;;;17.94;100.00;99744.34;5053787;28;20616;-72
2023/07/28 04:19:17;;;;;;;8.23;2.17;;;;;;;17.93;100.00;99737.25;5054260;28;20453;-72
2023/07/28 04:21:45;;;;;;;7.80;2.30;;;;;;;17.97;100.00;99741.63;5053785;28;20470;-72
2023/07/28 04:24:11;;;;;;;6.10;2.07;;;;;;;17.96;100.00;99739.28;5053756;28;20452;-72
2023/07/28 04:26:38;;;;;;;5.97;1.60;;;;;;;17.97;100.00;99736.16;5053684;28;20462;-72
2023/07/28 04:29:05;;;;;;;7.03;2.10;;;;;;;17.95;100.00;99738.50;5053422;28;20450;-72
2023/07/28 04:31:31;;;;;;;6.33;2.03;;;;;;;17.98;100.00;99731.50;5053651;28;20481;-72
2023/07/28 04:33:58;;;;;;;6.00;2.03;;;;;;;17.98;100.00;99731.50;5054086;28;20442;-72
2023/07/28 04:36:26;;;;;;;8.20;2.13;;;;;;;18.01;100.00;99727.97;5053547;28;20549;-72
2023/07/28 04:38:52;;;;;;;7.13;2.10;;;;;;;17.99;100.00;99722.09;5054020;28;20525;-71
2023/07/28 04:41:19;;;;;;;6.30;1.90;;;;;;;18.06;100.00;99733.13;5053541;28;20533;-72
2023/07/28 04:43:46;;;;;;;6.60;1.97;;;;;;;18.03;100.00;99717.47;5053534;28;20541;-71
2023/07/28 04:46:12;;;;;;;9.00;2.80;;;;;;;18.06;100.00;99724.91;5053315;28;20497;-71
2023/07/28 04:48:39;;;;;;;7.53;2.47;;;;;;;18.09;100.00;99719.47;5053377;28;20468;-72
2023/07/28 04:51:05;;;;;;;7.40;2.27;;;;;;;18.10;100.00;99723.00;5053688;28;20521;-72
2023/07/28 04:53:33;;;;;;;6.00;1.60;;;;;;;18.11;100.00;99721.88;5053449;28;20831;-72
2023/07/28 04:56:00;;;;;;;7.97;2.40;;;;;;;18.10;100.00;99733.97;5053263;28;20514;-72
2023/07/28 04:58:27;;;;;;;7.70;2.00;;;;;;;18.08;100.00;99731.63;5053711;28;20453;-71
2023/07/28 05:00:53;;;;;;;6.70;2.00;;;;;;;18.08;100.00;99731.63;5053699;28;20529;-74
2023/07/28 05:03:20;;;;;;;8.37;2.50;;;;;;;18.12;100.00;99742.63;5053337;28;20451;-72
2023/07/28 05:05:47;;;;;;;6.67;2.30;;;;;;;18.13;100.00;99744.19;5053298;28;20544;-71
2023/07/28 05:08:13;;;;;;;7.57;2.50;;;;;;;18.16;100.00;99732.50;5053376;28;20534;-71
2023/07/28 05:10:43;;;;;;;7.50;2.53;;;;;;;18.12;100.00;99740.66;5053684;28;20500;-72
2023/07/28 05:13:10;;;;;;;6.83;2.57;;;;;;;18.17;100.00;99736.03;5053455;28;20453;-71
2023/07/28 05:15:36;;;;;;;7.00;2.10;;;;;;;18.12;100.00;99746.16;5053081;28;20482;-72
2023/07/28 05:18:03;;;;;;;7.30;2.30;;;;;;;18.15;100.00;99741.88;5053311;28;20966;-71
2023/07/28 05:20:29;;;;;;;8.50;2.53;;;;;;;18.19;100.00;99748.19;5053161;28;20533;-71
2023/07/28 05:22:56;;;;;;;7.30;2.83;;;;;;;18.18;100.00;99745.81;5053252;28;20458;-71
2023/07/28 05:25:23;;;;;;;7.77;2.33;;;;;;;18.19;100.00;99748.19;5053012;28;20554;-72
2023/07/28 05:27:51;;;;;;;7.97;2.47;;;;;;;18.19;100.00;99750.13;5053277;28;20446;-72
2023/07/28 05:30:17;;;;;;;6.80;2.60;;;;;;;18.22;100.00;99760.38;5055880;28;20515;-71
2023/07/28 05:32:46;;;;;;;7.80;2.90;;;;;;;18.26;100.00;99758.47;5056975;28;20442;-72
2023/07/28 05:35:12;;;;;;;7.03;2.87;;;;;;;18.28;100.00;99750.63;5056811;28;20482;-72
2023/07/28 05:37:39;;;;;;;7.37;2.70;;;;;;;18.25;100.00;99763.16;5056957;28;20485;-71
2023/07/28 05:40:06;;;;;;;9.00;3.20;;;;;;;18.27;100.00;99749.06;5056777;28;20446;-72
2023/07/28 05:42:33;;;;;;;5.83;1.83;;;;;;;18.24;100.00;99755.28;5057082;28;20446;-71
2023/07/28 05:45:01;;;;;;;5.93;1.87;;;;;;;18.22;100.00;99755.66;5056687;28;20458;-71
2023/07/28 05:47:28;;;;;;;10.00;2.50;;;;;;;18.24;100.00;99758.03;5057060;28;20456;-72
2023/07/28 05:49:55;;;;;;;6.90;1.90;;;;;;;18.20;100.00;99762.69;5056696;28;20442;-72
2023/07/28 05:52:22;;;;;;;9.23;2.33;;;;;;;18.20;100.00;99765.44;5056397;28;20534;-72
2023/07/28 05:54:48;;;;;;;7.60;2.70;;;;;;;18.22;100.00;99768.59;5056579;28;20486;-72
2023/07/28 05:57:15;;;;;;;7.43;2.00;;;;;;;18.13;100.00;99766.13;5057377;28;20442;-72
2023/07/28 05:59:42;;;;;;;7.93;1.67;;;;;;;18.17;100.00;99766.19;5056504;28;20449;-72
2023/07/28 06:02:10;;;;;;;5.97;1.97;;;;;;;18.10;100.00;99766.88;5056187;28;20493;-71
2023/07/28 06:04:36;;;;;;;7.03;2.37;;;;;;;18.16;100.00;99773.63;5056323;28;20442;-71
2023/07/28 06:07:03;;;;;;;5.77;1.50;;;;;;;18.13;100.00;99771.59;5056096;28;20489;-71
2023/07/28 06:09:30;;;;;;;6.93;2.00;;;;;;;18.18;100.00;99776.75;5056477;28;20505;-71
2023/07/28 06:11:56;;;;;;;6.90;2.00;;;;;;;18.17;100.00;99777.94;5056260;28;20446;-72
2023/07/28 06:14:23;;;;;;;7.67;2.83;;;;;;;18.19;100.00;99792.03;5055778;28;20538;-73
2023/07/28 06:16:50;;;;;;;6.40;2.20;;;;;;;18.20;100.00;99793.66;5056299;28;20441;-71
2023/07/28 06:19:23;;;;;;;6.20;1.80;;;;;;;18.24;100.00;99799.16;5056402;28;20779;-70
2023/07/28 06:21:50;;;;;;;6.70;1.80;;;;;;;18.25;100.00;99808.97;5056776;28;20480;-69
2023/07/28 06:24:17;;;;;;;6.03;1.87;;;;;;;18.24;100.00;99815.59;5055787;28;20784;-73
2023/07/28 06:26:43;;;;;;;7.00;1.90;;;;;;;18.28;100.00;99817.25;5056282;28;20800;-71
2023/07/28 06:29:10;;;;;;;5.60;1.73;;;;;;;18.33;100.00;99816.13;5055673;28;20987;-69
2023/07/28 06:31:36;;;;;;;7.03;2.60;;;;;;;18.41;100.00;99826.78;5056293;28;20529;-71
2023/07/28 06:34:03;;;;;;;6.93;2.70;;;;;;;18.40;100.00;99829.91;5055856;28;20473;-70
2023/07/28 06:36:31;;;;;;;7.33;2.63;;;;;;;18.48;100.00;99825.31;5055720;28;20577;-68
2023/07/28 06:38:58;;;;;;;6.60;2.10;;;;;;;18.48;100.00;99831.59;5055837;28;20524;-68
2023/07/28 06:41:25;;;;;;;8.83;2.27;;;;;;;18.54;100.00;99832.84;5056242;28;20519;-67
2023/07/28 06:43:51;;;;;;;7.23;2.37;;;;;;;18.62;100.00;99833.72;5056094;28;20452;-69
2023/07/28 06:46:18;;;;;;;6.30;1.90;;;;;;;18.78;100.00;99828.06;5055859;28;20537;-69
2023/07/28 06:48:44;;;;;;;6.73;2.10;;;;;;;18.86;100.00;99830.50;5055545;28;20788;-68
2023/07/28 06:51:11;;;;;;;7.27;2.17;;;;;;;18.85;100.00;99830.88;5055485;28;20477;-68
2023/07/28 06:53:39;;;;;;;6.87;2.17;;;;;;;18.88;100.00;99833.66;5055800;28;20530;-69
2023/07/28 06:56:05;;;;;;;11.83;2.00;;;;;;;18.86;100.00;99836.00;5055684;28;20482;-69
2023/07/28 06:58:32;;;;;;;5.87;1.63;;;;;;;18.89;100.00;99845.44;5056191;28;20438;-68
2023/07/28 07:00:59;;;;;;;6.00;2.03;;;;;;;18.90;100.00;99847.81;5055726;28;20445;-68
2023/07/28 07:03:25;;;;;;;6.20;2.00;;;;;;;18.93;100.00;99834.50;5054981;28;21024;-68
2023/07/28 07:05:52;;;;;;;6.43;2.00;;;;;;;18.95;100.00;99840.38;5054893;28;20481;-68
2023/07/28 07:08:18;;;;;;;6.10;1.60;;;;;;;18.89;100.00;99848.16;5055001;28;20513;-68
2023/07/28 07:10:50;;;;;;;7.37;2.80;;;;;;;18.90;100.00;99849.75;5054944;28;20853;-68
2023/07/28 07:13:17;;;;;;;5.70;1.83;;;;;;;18.93;100.00;99853.69;5055268;28;20771;-68
2023/07/28 07:15:44;;;;;;;5.80;1.77;;;;;;;18.93;100.00;99854.50;5055721;28;20486;-69
2023/07/28 07:18:11;;;;;;;5.70;1.57;;;;;;;19.05;100.00;99853.44;5055275;28;20486;-69
2023/07/28 07:20:38;;;;;;;8.73;2.77;;;;;;;19.10;100.00;99858.59;5055005;28;20438;-69
2023/07/28 07:23:04;;;;;;;5.70;1.87;;;;;;;19.18;100.00;99859.47;5055138;28;20442;-70
2023/07/28 07:25:31;;;;;;;8.93;1.80;;;;;;;19.26;100.00;99858.38;5054466;28;20471;-69
2023/07/28 07:27:59;;;;;;;6.30;2.00;;;;;;;19.29;100.00;99863.09;5055246;28;20545;-68
2023/07/28 07:30:26;;;;;;;5.23;1.53;;;;;;;19.29;100.00;99869.38;5054806;28;20489;-68
2023/07/28 07:32:52;;;;;;;4.97;1.40;;;;;;;19.22;100.00;99861.09;5054848;28;20481;-68
2023/07/28 07:35:19;;;;;;;6.37;1.67;;;;;;;19.31;100.00;99853.31;5054571;28;20486;-68
2023/07/28 07:37:46;;;;;;;6.40;2.03;;;;;;;19.39;100.00;99860.47;5054396;28;20504;-69
2023/07/28 07:40:14;;;;;;;7.97;1.80;;;;;;;19.48;100.00;99864.84;5054724;28;20442;-69
2023/07/28 07:42:42;;;;;;;5.40;1.60;;;;;;;19.51;100.00;99850.34;5054599;28;20960;-68
2023/07/28 07:45:12;;;;;;;5.93;1.63;;;;;;;19.51;100.00;99861.34;5054432;28;20462;-68
2023/07/28 07:47:39;;;;;;;6.07;1.57;;;;;;;19.66;100.00;99860.34;5054870;28;20528;-68
2023/07/28 07:50:08;;;;;;;5.87;1.77;;;;;;;19.84;100.00;99855.75;5054409;28;20533;-70
2023/07/28 07:52:35;;;;;;;6.43;1.60;;;;;;;20.03;100.00;99859.41;5053900;28;20446;-68
2023/07/28 07:55:02;;;;;;;6.60;1.80;;;;;;;20.12;100.00;99862.63;5054141;28;20548;-68
2023/07/28 07:57:28;;;;;;;6.03;1.63;;;;;;;20.20;100.00;99857.97;5054537;28;20537;-68
2023/07/28 07:59:55;;;;;;;5.17;1.23;;;;;;;20.20;100.00;99878.00;5054252;28;20452;-68
2023/07/28 08:02:23;;;;;;;5.67;1.67;;;;;;;20.19;100.00;99870.09;5054537;28;20442;-67
2023/07/28 08:04:50;;;;;;;5.37;1.30;;;;;;;20.15;100.00;99876.41;5054816;28;20540;-68
2023/07/28 08:07:17;;;;;;;4.80;0.90;;;;;;;20.18;100.00;99883.06;5054050;28;20465;-68
2023/07/28 08:09:43;;;;;;;6.43;1.80;;;;;;;20.23;100.00;99881.91;5053757;28;20545;-67
2023/07/28 08:12:10;;;;;;;4.70;1.00;;;;;;;20.29;100.00;99875.69;5053987;28;20450;-68
2023/07/28 08:14:37;;;;;;;5.23;1.03;;;;;;;20.22;100.00;99902.34;5054247;28;20446;-68
2023/07/28 08:17:04;;;;;;;4.70;0.80;;;;;;;19.98;100.00;99895.53;5053699;28;20482;-67
2023/07/28 08:19:32;;;;;;;4.97;1.07;;;;;;;19.94;100.00;99900.19;5054277;28;20473;-67
2023/07/28 08:21:58;;;;;;;5.83;1.20;;;;;;;19.90;100.00;99900.16;5053810;28;20438;-67
2023/07/28 08:24:25;;;;;;;5.57;1.50;;;;;;;19.88;100.00;99897.81;5054034;28;20811;-67
2023/07/28 08:26:51;;;;;;;5.30;1.00;;;;;;;19.95;100.00;99912.78;5053489;28;20508;-68
2023/07/28 08:29:18;;;;;;;4.90;1.00;;;;;;;20.04;100.00;99902.22;5053749;28;20438;-67
2023/07/28 08:31:44;;;;;;;5.20;1.00;;;;;;;20.16;100.00;99899.97;5053684;28;20461;-67
2023/07/28 08:34:11;;;;;;;4.50;0.80;;;;;;;20.30;100.00;99904.78;5053365;28;21012;-67
2023/07/28 08:36:39;;;;;;;6.40;1.10;;;;;;;20.47;100.00;99906.06;5053818;28;20617;-68
2023/07/28 08:39:06;;;;;;;5.73;1.67;;;;;;;20.46;100.00;99907.22;5053661;28;20529;-68
2023/07/28 08:41:32;;;;;;;5.00;1.10;;;;;;;20.51;100.00;99904.16;5053622;28;20446;-67
2023/07/28 08:43:59;;;;;;;4.83;0.90;;;;;;;20.48;100.00;99909.63;5053608;28;20456;-67
2023/07/28 08:46:26;;;;;;;4.97;1.07;;;;;;;20.44;100.00;99914.28;5053467;28;20958;-67
2023/07/28 08:48:52;;;;;;;4.80;1.03;;;;;;;20.39;100.00;99921.72;5053436;28;20485;-67
2023/07/28 08:51:19;;;;;;;6.57;1.47;;;;;;;20.33;100.00;99915.00;5053506;28;20858;-67
2023/07/28 08:53:47;;;;;;;4.90;1.00;;;;;;;20.33;100.00;99912.25;5053847;28;20470;-67
2023/07/28 08:56:14;;;;;;;4.93;0.93;;;;;;;20.36;100.00;99913.44;5053230;28;20525;-67
2023/07/28 08:58:40;;;;;;;5.30;1.00;;;;;;;20.46;100.00;99923.75;5053610;28;20454;-67
2023/07/28 09:01:07;;;;;;;4.70;0.80;;;;;;;20.54;100.00;99925.41;5053140;28;21003;-67
2023/07/28 09:03:37;;;;;;;4.60;0.87;;;;;;;20.64;100.00;99926.63;5053451;28;20496;-67
2023/07/28 09:06:05;;;;;;;4.60;0.90;;;;;;;20.69;100.00;99928.22;5057828;28;20462;-70
2023/07/28 09:08:32;;;;;;;4.60;0.80;;;;;;;20.63;100.00;99927.81;5057844;28;20422;-68
2023/07/28 09:11:04;;;;;;;5.57;1.30;;;;;;;20.47;100.00;99936.31;5057631;28;20438;-68
2023/07/28 09:13:37;;;;;;;5.47;1.17;;;;;;;20.35;100.00;99934.66;5057412;28;20917;-68
2023/07/28 09:16:04;;;;;;;4.80;0.80;;;;;;;20.17;100.00;99937.28;5057276;28;20524;-68
2023/07/28 09:18:31;;;;;;;4.70;0.97;;;;;;;20.06;100.00;99944.69;5057010;28;20855;-68
2023/07/28 09:20:58;;;;;;;4.40;0.70;;;;;;;20.14;100.00;99940.81;5057592;28;20485;-68
2023/07/28 09:23:29;;;;;;;5.00;0.80;;;;;;;20.26;100.00;99939.72;5057002;28;20952;-68
2023/07/28 09:26:02;;;;;;;5.20;1.20;;;;;;;20.33;100.00;99942.53;5057859;28;20469;-68
2023/07/28 09:28:38;;;;;;;5.40;1.37;;;;;;;20.46;100.00;99934.75;5057244;28;20801;-68
2023/07/28 09:31:06;;;;;;;4.87;1.07;;;;;;;20.53;100.00;99945.81;5057268;28;20431;-68
2023/07/28 09:33:34;;;;;;;4.87;1.30;;;;;;;20.56;100.00;99945.06;5057327;28;20446;-68
2023/07/28 09:36:08;;;;;;;4.70;0.83;;;;;;;20.61;100.00;99946.66;5056653;28;20572;-68
2023/07/28 09:38:37;;;;;;;5.20;0.80;;;;;;;20.61;100.00;99941.94;5056982;28;20464;-68
2023/07/28 09:41:08;;;;;;;5.10;1.10;;;;;;;20.69;100.00;99947.47;5056827;28;20448;-68
2023/07/28 09:43:35;;;;;;;4.97;0.83;;;;;;;20.81;100.00;99952.66;5056546;28;20418;-68
2023/07/28 09:46:04;;;;;;;4.80;1.03;;;;;;;20.77;100.00;99952.63;5056615;28;20992;-68
2023/07/28 09:48:32;;;;;;;4.70;1.00;;;;;;;20.78;100.00;99956.97;5057118;28;20442;-68
2023/07/28 09:51:00;;;;;;;4.67;0.70;;;;;;;20.80;100.00;99956.56;5056492;28;20438;-68
2023/07/28 09:53:29;;;;;;;5.10;0.97;;;;;;;20.73;100.00;99968.34;5056696;28;20520;-67
2023/07/28 09:55:57;;;;;;;4.73;1.07;;;;;;;20.71;100.00;99959.66;5056412;28;20581;-67
2023/07/28 09:58:27;;;;;;;4.80;0.90;;;;;;;20.66;100.00;99955.31;5056797;28;20442;-67
2023/07/28 10:00:54;;;;;;;4.47;0.80;;;;;;;20.66;100.00;99957.28;5056480;28;20820;-67
2023/07/28 10:03:21;;;;;;;5.53;1.30;;;;;;;20.73;100.00;99960.09;5057089;28;20448;-67
2023/07/28 10:05:48;;;;;;;5.40;1.37;;;;;;;20.89;100.00;99957.81;5056411;28;20458;-68
2023/07/28 10:08:16;;;;;;;5.17;1.27;;;;;;;21.16;100.00;99966.59;5056335;28;20474;-68
2023/07/28 10:10:43;;;;;;;4.67;1.00;;;;;;;21.43;100.00;99955.28;5056642;28;20565;-68
2023/07/28 10:13:21;;;;;;;5.20;1.10;;;;;;;21.56;100.00;99953.75;5056574;28;20934;-68
2023/07/28 10:15:49;;;;;;;4.70;1.00;;;;;;;21.47;100.00;99953.31;5055644;28;20454;-68
2023/07/28 10:18:16;;;;;;;4.93;1.07;;;;;;;21.39;100.00;99960.78;5056495;28;20446;-68
2023/07/28 10:20:46;;;;;;;5.13;1.43;;;;;;;21.33;100.00;99965.06;5056206;28;20771;-68
2023/07/28 10:23:15;;;;;;;5.00;1.20;;;;;;;21.19;100.00;99964.22;5056117;28;20430;-67
2023/07/28 10:25:44;;;;;;;5.20;1.10;;;;;;;20.91;100.00;99976.69;5056049;28;20506;-68
2023/07/28 10:28:30;;;;;;;6.00;1.57;;;;;;;20.71;100.00;99984.44;5056227;28;20446;-67
2023/07/28 10:31:00;;;;;;;5.30;1.00;;;;;;;20.42;100.00;99992.50;5056400;28;20500;-68
2023/07/28 10:33:28;;;;;;;5.27;1.30;;;;;;;20.38;100.00;99983.44;5055957;28;20441;-67
2023/07/28 10:35:55;;;;;;;5.53;1.07;;;;;;;20.37;100.00;99989.31;5056039;28;20462;-67
2023/07/28 10:38:33;;;;;;;4.80;1.00;;;;;;;20.30;100.00;99992.78;5056176;28;20445;-67
2023/07/28 10:41:12;;;;;;;5.00;0.80;;;;;;;20.16;100.00;99995.44;5055482;28;20988;-67
2023/07/28 10:43:39;;;;;;;4.57;0.80;;;;;;;19.97;100.00;100001.16;5055931;28;20828;-67
2023/07/28 10:46:09;;;;;;;4.63;0.80;;;;;;;19.73;100.00;100000.53;5056170;28;20537;-68
2023/07/28 10:48:38;;;;;;;5.00;1.00;;;;;;;19.59;100.00;100000.34;5056046;28;20427;-68
2023/07/28 10:51:04;;;;;;;4.60;0.70;;;;;;;19.49;100.00;100006.53;5055729;28;20435;-68
2023/07/28 10:53:32;;;;;;;4.60;0.83;;;;;;;19.31;100.00;99998.09;5055560;28;20462;-68
2023/07/28 10:56:00;;;;;;;4.50;0.70;;;;;;;19.28;100.00;99999.63;5055458;28;20466;-68
2023/07/28 10:58:26;;;;;;;4.73;0.90;;;;;;;19.28;100.00;100005.09;5055459;28;20449;-68
2023/07/28 11:00:53;;;;;;;4.33;0.70;;;;;;;19.28;100.00;100018.06;5055459;28;20446;-68
2023/07/28 11:03:21;;;;;;;7.47;0.80;;;;;;;19.28;100.00;100021.59;5055653;28;20545;-69
2023/07/28 11:05:50;;;;;;;4.33;0.60;;;;;;;19.17;100.00;100017.94;5054777;28;20474;-70
2023/07/28 11:08:17;;;;;;;4.87;1.00;;;;;;;19.08;100.00;100022.88;5055645;28;20450;-69
2023/07/28 11:10:44;;;;;;;4.50;0.73;;;;;;;19.10;100.00;100026.06;5055587;28;20529;-69
2023/07/28 11:13:11;;;;;;;4.67;0.83;;;;;;;19.11;100.00;100024.91;5055206;28;20841;-69
2023/07/28 11:15:38;;;;;;;4.50;0.73;;;;;;;19.10;100.00;100029.59;5055224;28;20469;-68
2023/07/28 11:18:06;;;;;;;4.50;0.70;;;;;;;19.15;100.00;100028.47;5055145;28;20572;-70
2023/07/28 11:20:34;;;;;;;4.80;0.80;;;;;;;19.16;100.00;100030.06;5055697;28;20458;-70
2023/07/28 11:23:03;;;;;;;5.10;0.90;;;;;;;19.16;100.00;100025.34;5054942;28;20545;-69
2023/07/28 11:25:30;;;;;;;4.80;0.90;;;;;;;19.18;100.00;100044.22;5054966;28;20500;-69